sensor_id;sensor_type;location;lat;lon;timestamp;pressure;altitude;pressure_sealevel;temperature;humidity
76448;BME280;65284;51.040;13.722;2023-05-27T00:00:28;101019.19;;;12.37;58.43
76448;BME280;65284;51.040;13.722;2023-05-27T00:02:55;101022.75;;;12.18;58.82
76448;BME280;65284;51.040;13.722;2023-05-27T00:05:21;101020.91;;;12.28;58.54
76448;BME280;65284;51.040;13.722;2023-05-27T00:07:48;101020.78;;;12.20;59.09
76448;BME280;65284;51.040;13.722;2023-05-27T00:10:14;101026.81;;;12.50;58.40
76448;BME280;65284;51.040;13.722;2023-05-27T00:12:41;101021.94;;;12.73;58.70
76448;BME280;65284;51.040;13.722;2023-05-27T00:15:08;101018.31;;;12.64;58.33
76448;BME280;65284;51.040;13.722;2023-05-27T00:17:34;101018.53;;;12.53;58.73
76448;BME280;65284;51.040;13.722;2023-05-27T00:20:01;101022.59;;;12.57;58.45
76448;BME280;65284;51.040;13.722;2023-05-27T00:22:34;101017.63;;;12.62;58.37
76448;BME280;65284;51.040;13.722;2023-05-27T00:25:01;101018.22;;;12.84;58.08
76448;BME280;65284;51.040;13.722;2023-05-27T00:27:27;101022.38;;;12.86;58.18
76448;BME280;65284;51.040;13.722;2023-05-27T00:29:54;101020.00;;;12.65;58.11
76448;BME280;65284;51.040;13.722;2023-05-27T00:32:20;101020.00;;;12.65;58.72
76448;BME280;65284;51.040;13.722;2023-05-27T00:34:47;101023.16;;;12.51;59.05
76448;BME280;65284;51.040;13.722;2023-05-27T00:37:13;101013.03;;;12.27;59.50
76448;BME280;65284;51.040;13.722;2023-05-27T00:39:40;101019.84;;;12.12;60.54
76448;BME280;65284;51.040;13.722;2023-05-27T00:42:07;101007.03;;;12.25;61.28
76448;BME280;65284;51.040;13.722;2023-05-27T00:44:33;101011.25;;;12.18;60.74
76448;BME280;65284;51.040;13.722;2023-05-27T00:47:00;101021.09;;;12.17;60.76
76448;BME280;65284;51.040;13.722;2023-05-27T00:49:27;101030.25;;;12.05;62.20
76448;BME280;65284;51.040;13.722;2023-05-27T00:51:53;101020.19;;;12.26;61.62
76448;BME280;65284;51.040;13.722;2023-05-27T00:54:20;101022.47;;;12.21;61.51
76448;BME280;65284;51.040;13.722;2023-05-27T00:56:46;101027.00;;;12.11;62.08
76448;BME280;65284;51.040;13.722;2023-05-27T00:59:13;101029.94;;;12.08;62.71
76448;BME280;65284;51.040;13.722;2023-05-27T01:01:40;101034.28;;;12.19;62.65
76448;BME280;65284;51.040;13.722;2023-05-27T01:04:10;101025.88;;;12.14;62.23
76448;BME280;65284;51.040;13.722;2023-05-27T01:07:10;101033.38;;;11.91;63.18
76448;BME280;65284;51.040;13.722;2023-05-27T01:10:02;101033.31;;;12.00;63.05
76448;BME280;65284;51.040;13.722;2023-05-27T01:12:37;101029.03;;;11.90;63.53
76448;BME280;65284;51.040;13.722;2023-05-27T01:15:06;101036.31;;;11.78;63.19
76448;BME280;65284;51.040;13.722;2023-05-27T01:17:33;101027.06;;;11.72;64.36
76448;BME280;65284;51.040;13.722;2023-05-27T01:20:04;101035.03;;;11.82;63.88
76448;BME280;65284;51.040;13.722;2023-05-27T01:22:32;101029.03;;;11.70;64.08
76448;BME280;65284;51.040;13.722;2023-05-27T01:24:58;101015.03;;;11.68;64.24
76448;BME280;65284;51.040;13.722;2023-05-27T01:27:25;101031.25;;;11.84;63.92
76448;BME280;65284;51.040;13.722;2023-05-27T01:29:51;101023.53;;;12.01;63.06
76448;BME280;65284;51.040;13.722;2023-05-27T01:32:30;101023.16;;;11.86;63.40
76448;BME280;65284;51.040;13.722;2023-05-27T01:35:24;101017.56;;;11.70;64.18
76448;BME280;65284;51.040;13.722;2023-05-27T01:37:52;101015.31;;;11.65;64.58
76448;BME280;65284;51.040;13.722;2023-05-27T01:40:22;101013.19;;;11.78;64.03
76448;BME280;65284;51.040;13.722;2023-05-27T01:42:50;101010.28;;;11.62;64.30
76448;BME280;65284;51.040;13.722;2023-05-27T01:45:16;101019.13;;;11.53;64.26
76448;BME280;65284;51.040;13.722;2023-05-27T01:47:43;101008.06;;;11.38;64.85
76448;BME280;65284;51.040;13.722;2023-05-27T01:50:11;101007.41;;;11.36;64.94
76448;BME280;65284;51.040;13.722;2023-05-27T01:52:37;101006.13;;;11.30;65.58
76448;BME280;65284;51.040;13.722;2023-05-27T01:55:04;101000.81;;;11.30;65.54
76448;BME280;65284;51.040;13.722;2023-05-27T01:57:31;101000.25;;;11.17;65.84
76448;BME280;65284;51.040;13.722;2023-05-27T01:59:58;101008.09;;;11.19;65.69
76448;BME280;65284;51.040;13.722;2023-05-27T02:02:24;100998.28;;;11.19;65.82
76448;BME280;65284;51.040;13.722;2023-05-27T02:04:51;101003.91;;;11.16;66.08
76448;BME280;65284;51.040;13.722;2023-05-27T02:07:17;100998.59;;;11.06;66.28
76448;BME280;65284;51.040;13.722;2023-05-27T02:09:45;100999.69;;;10.94;66.05
76448;BME280;65284;51.040;13.722;2023-05-27T02:12:12;100994.78;;;10.89;66.28
76448;BME280;65284;51.040;13.722;2023-05-27T02:14:38;100987.66;;;10.80;66.81
76448;BME280;65284;51.040;13.722;2023-05-27T02:17:05;100985.69;;;10.73;66.77
76448;BME280;65284;51.040;13.722;2023-05-27T02:19:33;100990.97;;;10.63;66.93
76448;BME280;65284;51.040;13.722;2023-05-27T02:21:59;100986.75;;;10.51;67.35
76448;BME280;65284;51.040;13.722;2023-05-27T02:24:25;100989.28;;;10.52;67.49
76448;BME280;65284;51.040;13.722;2023-05-27T02:26:52;100988.41;;;10.42;67.48
76448;BME280;65284;51.040;13.722;2023-05-27T02:29:18;101001.22;;;10.27;68.35
76448;BME280;65284;51.040;13.722;2023-05-27T02:31:45;100996.84;;;10.57;66.92
76448;BME280;65284;51.040;13.722;2023-05-27T02:34:11;100996.22;;;10.43;67.31
76448;BME280;65284;51.040;13.722;2023-05-27T02:36:38;101005.78;;;10.25;68.16
76448;BME280;65284;51.040;13.722;2023-05-27T02:39:05;101008.13;;;10.09;68.42
76448;BME280;65284;51.040;13.722;2023-05-27T02:41:32;101004.81;;;10.26;68.30
76448;BME280;65284;51.040;13.722;2023-05-27T02:43:58;101014.38;;;10.08;68.74
76448;BME280;65284;51.040;13.722;2023-05-27T02:46:25;101008.88;;;9.99;69.33
76448;BME280;65284;51.040;13.722;2023-05-27T02:48:51;101011.16;;;10.04;68.94
76448;BME280;65284;51.040;13.722;2023-05-27T02:51:18;101013.16;;;10.12;68.65
76448;BME280;65284;51.040;13.722;2023-05-27T02:53:44;101002.53;;;10.12;69.21
76448;BME280;65284;51.040;13.722;2023-05-27T02:56:10;101012.25;;;10.01;69.03
76448;BME280;65284;51.040;13.722;2023-05-27T02:58:37;101011.13;;;9.94;69.54
76448;BME280;65284;51.040;13.722;2023-05-27T03:01:03;101013.66;;;10.06;69.35
76448;BME280;65284;51.040;13.722;2023-05-27T03:03:30;101001.59;;;9.92;69.20
76448;BME280;65284;51.040;13.722;2023-05-27T03:05:57;101007.13;;;9.79;69.68
76448;BME280;65284;51.040;13.722;2023-05-27T03:08:23;101011.56;;;9.78;70.40
76448;BME280;65284;51.040;13.722;2023-05-27T03:10:49;101007.47;;;9.65;70.39
76448;BME280;65284;51.040;13.722;2023-05-27T03:13:16;101001.28;;;9.64;70.45
76448;BME280;65284;51.040;13.722;2023-05-27T03:15:42;101005.38;;;9.68;70.14
76448;BME280;65284;51.040;13.722;2023-05-27T03:18:09;100998.47;;;9.56;70.46
76448;BME280;65284;51.040;13.722;2023-05-27T03:20:35;101000.66;;;9.72;70.28
76448;BME280;65284;51.040;13.722;2023-05-27T03:23:02;101011.66;;;9.46;70.76
76448;BME280;65284;51.040;13.722;2023-05-27T03:25:29;101007.59;;;9.42;70.49
76448;BME280;65284;51.040;13.722;2023-05-27T03:27:55;101004.41;;;9.48;70.94
76448;BME280;65284;51.040;13.722;2023-05-27T03:30:22;101008.56;;;9.41;70.77
76448;BME280;65284;51.040;13.722;2023-05-27T03:32:48;101008.31;;;9.44;70.67
76448;BME280;65284;51.040;13.722;2023-05-27T03:35:14;101005.19;;;9.39;71.33
76448;BME280;65284;51.040;13.722;2023-05-27T03:37:41;101014.13;;;9.38;71.17
76448;BME280;65284;51.040;13.722;2023-05-27T03:40:08;101013.28;;;9.38;71.03
76448;BME280;65284;51.040;13.722;2023-05-27T03:42:35;101016.06;;;9.36;71.11
76448;BME280;65284;51.040;13.722;2023-05-27T03:45:02;101014.38;;;9.35;71.03
76448;BME280;65284;51.040;13.722;2023-05-27T03:47:28;101018.97;;;9.33;71.26
76448;BME280;65284;51.040;13.722;2023-05-27T03:49:55;101012.41;;;9.37;71.12
76448;BME280;65284;51.040;13.722;2023-05-27T03:52:21;101018.91;;;9.44;70.39
76448;BME280;65284;51.040;13.722;2023-05-27T03:54:48;101024.28;;;9.54;70.28
76448;BME280;65284;51.040;13.722;2023-05-27T03:57:14;101018.66;;;9.47;70.50
76448;BME280;65284;51.040;13.722;2023-05-27T03:59:40;101017.66;;;9.48;70.42
76448;BME280;65284;51.040;13.722;2023-05-27T04:02:07;101020.06;;;9.51;70.22
76448;BME280;65284;51.040;13.722;2023-05-27T04:04:34;101025.38;;;9.51;70.33
76448;BME280;65284;51.040;13.722;2023-05-27T04:07:00;101020.31;;;9.48;70.55
76448;BME280;65284;51.040;13.722;2023-05-27T04:09:27;101025.38;;;9.51;70.47
76448;BME280;65284;51.040;13.722;2023-05-27T04:11:53;101016.56;;;9.72;69.85
76448;BME280;65284;51.040;13.722;2023-05-27T04:14:20;101027.06;;;9.73;69.70
76448;BME280;65284;51.040;13.722;2023-05-27T04:16:46;101027.69;;;9.66;69.91
76448;BME280;65284;51.040;13.722;2023-05-27T04:19:14;101022.72;;;9.72;69.31
76448;BME280;65284;51.040;13.722;2023-05-27T04:21:41;101023.28;;;9.76;69.47
76448;BME280;65284;51.040;13.722;2023-05-27T04:24:07;101022.53;;;9.85;69.50
76448;BME280;65284;51.040;13.722;2023-05-27T04:26:34;101017.28;;;9.74;69.37
76448;BME280;65284;51.040;13.722;2023-05-27T04:29:00;101026.44;;;9.91;68.84
76448;BME280;65284;51.040;13.722;2023-05-27T04:31:26;101026.31;;;9.92;69.13
76448;BME280;65284;51.040;13.722;2023-05-27T04:33:55;101035.00;;;9.94;68.73
76448;BME280;65284;51.040;13.722;2023-05-27T04:36:22;101032.19;;;9.96;69.06
76448;BME280;65284;51.040;13.722;2023-05-27T04:38:51;101033.88;;;10.18;68.41
76448;BME280;65284;51.040;13.722;2023-05-27T04:41:18;101028.81;;;10.15;68.80
76448;BME280;65284;51.040;13.722;2023-05-27T04:43:46;101031.63;;;10.23;68.17
76448;BME280;65284;51.040;13.722;2023-05-27T04:46:14;101040.84;;;10.19;68.40
76448;BME280;65284;51.040;13.722;2023-05-27T04:48:41;101032.34;;;10.25;68.07
76448;BME280;65284;51.040;13.722;2023-05-27T04:51:07;101035.84;;;10.25;68.50
76448;BME280;65284;51.040;13.722;2023-05-27T04:53:33;101044.38;;;9.98;69.35
76448;BME280;65284;51.040;13.722;2023-05-27T04:56:00;101035.41;;;10.20;68.69
76448;BME280;65284;51.040;13.722;2023-05-27T04:58:27;101033.78;;;10.29;68.51
76448;BME280;65284;51.040;13.722;2023-05-27T05:00:54;101035.94;;;10.35;69.24
76448;BME280;65284;51.040;13.722;2023-05-27T05:03:23;101041.91;;;10.07;70.00
76448;BME280;65284;51.040;13.722;2023-05-27T05:06:03;101046.16;;;10.19;69.55
76448;BME280;65284;51.040;13.722;2023-05-27T05:08:30;101039.75;;;10.21;69.34
76448;BME280;65284;51.040;13.722;2023-05-27T05:10:56;101045.13;;;10.31;69.20
76448;BME280;65284;51.040;13.722;2023-05-27T05:13:23;101038.97;;;10.31;69.25
76448;BME280;65284;51.040;13.722;2023-05-27T05:15:50;101041.06;;;10.27;69.79
76448;BME280;65284;51.040;13.722;2023-05-27T05:18:16;101039.25;;;10.37;69.52
76448;BME280;65284;51.040;13.722;2023-05-27T05:20:43;101040.38;;;10.35;69.88
76448;BME280;65284;51.040;13.722;2023-05-27T05:23:09;101041.56;;;10.61;69.29
76448;BME280;65284;51.040;13.722;2023-05-27T05:25:36;101045.78;;;10.64;69.11
76448;BME280;65284;51.040;13.722;2023-05-27T05:28:04;101041.03;;;10.67;69.39
76448;BME280;65284;51.040;13.722;2023-05-27T05:30:31;101043.13;;;10.64;70.21
76448;BME280;65284;51.040;13.722;2023-05-27T05:32:58;101044.28;;;10.81;70.36
76448;BME280;65284;51.040;13.722;2023-05-27T05:35:25;101041.34;;;10.74;70.99
76448;BME280;65284;51.040;13.722;2023-05-27T05:37:52;101049.78;;;10.89;70.45
76448;BME280;65284;51.040;13.722;2023-05-27T05:40:18;101050.22;;;11.04;69.72
76448;BME280;65284;51.040;13.722;2023-05-27T05:42:45;101055.03;;;10.79;70.53
76448;BME280;65284;51.040;13.722;2023-05-27T05:45:12;101051.44;;;10.80;70.11
76448;BME280;65284;51.040;13.722;2023-05-27T05:47:38;101054.94;;;10.90;69.97
76448;BME280;65284;51.040;13.722;2023-05-27T05:50:05;101046.41;;;10.87;69.95
76448;BME280;65284;51.040;13.722;2023-05-27T05:52:32;101062.81;;;11.21;68.68
76448;BME280;65284;51.040;13.722;2023-05-27T05:54:58;101058.19;;;11.23;67.99
76448;BME280;65284;51.040;13.722;2023-05-27T05:57:25;101064.75;;;11.38;68.11
76448;BME280;65284;51.040;13.722;2023-05-27T05:59:52;101059.31;;;11.50;67.70
76448;BME280;65284;51.040;13.722;2023-05-27T06:02:18;101075.53;;;11.47;67.94
76448;BME280;65284;51.040;13.722;2023-05-27T06:04:45;101073.75;;;11.57;67.19
76448;BME280;65284;51.040;13.722;2023-05-27T06:07:11;101070.50;;;11.44;67.55
76448;BME280;65284;51.040;13.722;2023-05-27T06:09:38;101074.13;;;11.62;67.84
76448;BME280;65284;51.040;13.722;2023-05-27T06:12:05;101081.72;;;11.57;67.56
76448;BME280;65284;51.040;13.722;2023-05-27T06:14:32;101075.84;;;11.63;66.71
76448;BME280;65284;51.040;13.722;2023-05-27T06:16:59;101075.97;;;11.71;66.42
76448;BME280;65284;51.040;13.722;2023-05-27T06:19:25;101080.28;;;11.82;66.33
76448;BME280;65284;51.040;13.722;2023-05-27T06:21:52;101073.59;;;11.88;65.80
76448;BME280;65284;51.040;13.722;2023-05-27T06:24:18;101073.25;;;12.00;65.00
76448;BME280;65284;51.040;13.722;2023-05-27T06:26:45;101067.34;;;12.16;65.12
76448;BME280;65284;51.040;13.722;2023-05-27T06:29:12;101068.69;;;12.30;64.56
76448;BME280;65284;51.040;13.722;2023-05-27T06:31:38;101075.22;;;12.08;63.97
76448;BME280;65284;51.040;13.722;2023-05-27T06:34:05;101075.84;;;12.29;63.87
76448;BME280;65284;51.040;13.722;2023-05-27T06:36:32;101074.50;;;12.16;64.62
76448;BME280;65284;51.040;13.722;2023-05-27T06:38:59;101072.09;;;12.22;63.70
76448;BME280;65284;51.040;13.722;2023-05-27T06:41:26;101067.06;;;12.19;63.80
76448;BME280;65284;51.040;13.722;2023-05-27T06:43:52;101060.44;;;12.23;63.94
76448;BME280;65284;51.040;13.722;2023-05-27T06:46:18;101059.19;;;12.27;63.38
76448;BME280;65284;51.040;13.722;2023-05-27T06:48:46;101062.81;;;12.26;63.50
76448;BME280;65284;51.040;13.722;2023-05-27T06:51:14;101055.13;;;12.51;63.12
76448;BME280;65284;51.040;13.722;2023-05-27T06:53:40;101052.75;;;12.48;63.00
76448;BME280;65284;51.040;13.722;2023-05-27T06:56:07;101055.41;;;12.58;62.75
76448;BME280;65284;51.040;13.722;2023-05-27T06:58:33;101060.38;;;12.70;62.70
76448;BME280;65284;51.040;13.722;2023-05-27T07:01:01;101059.31;;;12.63;62.54
76448;BME280;65284;51.040;13.722;2023-05-27T07:03:27;101062.63;;;12.65;62.69
76448;BME280;65284;51.040;13.722;2023-05-27T07:05:54;101057.72;;;12.70;62.24
76448;BME280;65284;51.040;13.722;2023-05-27T07:08:21;101056.19;;;12.68;62.38
76448;BME280;65284;51.040;13.722;2023-05-27T07:10:47;101055.25;;;12.87;62.00
76448;BME280;65284;51.040;13.722;2023-05-27T07:13:14;101057.50;;;12.82;62.15
76448;BME280;65284;51.040;13.722;2023-05-27T07:15:42;101052.97;;;12.64;62.20
76448;BME280;65284;51.040;13.722;2023-05-27T07:18:08;101056.72;;;12.71;62.20
76448;BME280;65284;51.040;13.722;2023-05-27T07:20:35;101051.69;;;12.68;62.15
76448;BME280;65284;51.040;13.722;2023-05-27T07:23:01;101058.78;;;12.78;62.29
76448;BME280;65284;51.040;13.722;2023-05-27T07:25:28;101044.16;;;12.64;62.28
76448;BME280;65284;51.040;13.722;2023-05-27T07:27:54;101051.97;;;12.65;62.11
76448;BME280;65284;51.040;13.722;2023-05-27T07:30:20;101045.22;;;12.71;61.87
76448;BME280;65284;51.040;13.722;2023-05-27T07:32:47;101050.78;;;12.78;61.99
76448;BME280;65284;51.040;13.722;2023-05-27T07:35:14;101038.63;;;12.93;61.56
76448;BME280;65284;51.040;13.722;2023-05-27T07:37:41;101037.03;;;13.00;61.73
76448;BME280;65284;51.040;13.722;2023-05-27T07:40:07;101036.81;;;13.11;61.07
76448;BME280;65284;51.040;13.722;2023-05-27T07:42:34;101038.78;;;13.09;60.54
76448;BME280;65284;51.040;13.722;2023-05-27T07:45:02;101048.53;;;13.18;60.58
76448;BME280;65284;51.040;13.722;2023-05-27T07:47:29;101042.88;;;13.31;61.00
76448;BME280;65284;51.040;13.722;2023-05-27T07:49:56;101044.44;;;13.42;60.42
76448;BME280;65284;51.040;13.722;2023-05-27T07:52:22;101039.56;;;13.55;59.84
76448;BME280;65284;51.040;13.722;2023-05-27T07:54:48;101044.59;;;13.58;59.79
76448;BME280;65284;51.040;13.722;2023-05-27T07:57:21;101036.34;;;13.70;59.48
76448;BME280;65284;51.040;13.722;2023-05-27T07:59:47;101035.91;;;13.56;59.39
76448;BME280;65284;51.040;13.722;2023-05-27T08:02:14;101043.03;;;13.74;59.17
76448;BME280;65284;51.040;13.722;2023-05-27T08:04:40;101031.09;;;13.86;59.04
76448;BME280;65284;51.040;13.722;2023-05-27T08:07:10;101023.41;;;13.83;58.92
76448;BME280;65284;51.040;13.722;2023-05-27T08:09:36;101024.88;;;14.03;58.49
76448;BME280;65284;51.040;13.722;2023-05-27T08:12:03;101022.28;;;13.41;59.58
76448;BME280;65284;51.040;13.722;2023-05-27T08:14:29;101014.22;;;13.59;59.64
76448;BME280;65284;51.040;13.722;2023-05-27T08:16:56;101017.88;;;13.76;58.79
76448;BME280;65284;51.040;13.722;2023-05-27T08:19:22;101012.63;;;13.67;59.10
76448;BME280;65284;51.040;13.722;2023-05-27T08:21:49;101009.34;;;13.73;59.55
76448;BME280;65284;51.040;13.722;2023-05-27T08:24:15;101016.03;;;13.77;58.92
76448;BME280;65284;51.040;13.722;2023-05-27T08:26:41;101012.84;;;13.99;58.66
76448;BME280;65284;51.040;13.722;2023-05-27T08:29:08;101008.84;;;14.03;58.38
76448;BME280;65284;51.040;13.722;2023-05-27T08:31:34;100999.28;;;14.27;57.98
76448;BME280;65284;51.040;13.722;2023-05-27T08:34:01;101003.66;;;14.36;57.21
76448;BME280;65284;51.040;13.722;2023-05-27T08:36:27;101002.94;;;14.26;56.43
76448;BME280;65284;51.040;13.722;2023-05-27T08:38:54;100999.72;;;14.22;56.68
76448;BME280;65284;51.040;13.722;2023-05-27T08:41:20;100996.13;;;13.97;57.00
76448;BME280;65284;51.040;13.722;2023-05-27T08:43:49;100994.84;;;14.09;56.57
76448;BME280;65284;51.040;13.722;2023-05-27T08:46:20;100988.91;;;14.24;57.29
76448;BME280;65284;51.040;13.722;2023-05-27T08:48:47;100982.44;;;14.34;56.27
76448;BME280;65284;51.040;13.722;2023-05-27T08:51:16;100981.25;;;14.37;56.30
76448;BME280;65284;51.040;13.722;2023-05-27T08:53:44;100973.78;;;14.41;56.14
76448;BME280;65284;51.040;13.722;2023-05-27T08:56:14;100973.78;;;14.49;55.66
76448;BME280;65284;51.040;13.722;2023-05-27T08:58:41;100976.84;;;14.54;55.28
76448;BME280;65284;51.040;13.722;2023-05-27T09:01:09;100972.19;;;14.64;55.14
76448;BME280;65284;51.040;13.722;2023-05-27T09:03:36;100971.69;;;14.69;56.13
76448;BME280;65284;51.040;13.722;2023-05-27T09:06:03;100971.72;;;14.93;55.57
76448;BME280;65284;51.040;13.722;2023-05-27T09:08:30;100958.03;;;14.88;54.83
76448;BME280;65284;51.040;13.722;2023-05-27T09:11:34;100959.06;;;15.12;54.48
76448;BME280;65284;51.040;13.722;2023-05-27T09:14:02;100959.72;;;15.06;54.11
76448;BME280;65284;51.040;13.722;2023-05-27T09:16:29;100948.84;;;15.07;54.24
76448;BME280;65284;51.040;13.722;2023-05-27T09:18:56;100948.00;;;15.15;54.61
76448;BME280;65284;51.040;13.722;2023-05-27T09:21:24;100948.31;;;15.28;54.43
76448;BME280;65284;51.040;13.722;2023-05-27T09:23:55;100953.34;;;15.07;53.44
76448;BME280;65284;51.040;13.722;2023-05-27T09:26:22;100954.34;;;15.22;54.17
76448;BME280;65284;51.040;13.722;2023-05-27T09:28:49;100954.50;;;15.45;53.70
76448;BME280;65284;51.040;13.722;2023-05-27T09:31:16;100951.66;;;15.46;52.84
76448;BME280;65284;51.040;13.722;2023-05-27T09:33:42;100952.34;;;15.32;52.30
76448;BME280;65284;51.040;13.722;2023-05-27T09:36:09;100952.03;;;15.35;52.90
76448;BME280;65284;51.040;13.722;2023-05-27T09:38:36;100952.66;;;15.37;53.36
76448;BME280;65284;51.040;13.722;2023-05-27T09:41:03;100949.34;;;15.35;52.91
76448;BME280;65284;51.040;13.722;2023-05-27T09:43:30;100946.81;;;15.34;53.52
76448;BME280;65284;51.040;13.722;2023-05-27T09:46:02;100948.31;;;15.44;53.69
76448;BME280;65284;51.040;13.722;2023-05-27T09:48:30;100948.28;;;15.53;52.50
76448;BME280;65284;51.040;13.722;2023-05-27T09:51:00;100939.28;;;15.45;53.18
76448;BME280;65284;51.040;13.722;2023-05-27T09:53:27;100921.84;;;15.58;52.61
76448;BME280;65284;51.040;13.722;2023-05-27T09:55:54;100922.47;;;15.84;52.57
76448;BME280;65284;51.040;13.722;2023-05-27T09:58:22;100927.53;;;15.63;52.04
76448;BME280;65284;51.040;13.722;2023-05-27T10:00:49;100916.16;;;15.69;51.29
76448;BME280;65284;51.040;13.722;2023-05-27T10:03:17;100913.19;;;15.39;51.21
76448;BME280;65284;51.040;13.722;2023-05-27T10:05:49;100913.19;;;15.39;51.10
76448;BME280;65284;51.040;13.722;2023-05-27T10:08:15;100900.47;;;15.41;50.86
76448;BME280;65284;51.040;13.722;2023-05-27T10:10:52;100910.84;;;15.44;50.76
76448;BME280;65284;51.040;13.722;2023-05-27T10:13:19;100892.72;;;15.63;49.51
76448;BME280;65284;51.040;13.722;2023-05-27T10:15:48;100904.94;;;15.74;49.89
76448;BME280;65284;51.040;13.722;2023-05-27T10:18:23;100894.16;;;15.90;49.84
76448;BME280;65284;51.040;13.722;2023-05-27T10:20:50;100893.66;;;15.95;49.76
76448;BME280;65284;51.040;13.722;2023-05-27T10:23:21;100899.63;;;15.97;49.39
76448;BME280;65284;51.040;13.722;2023-05-27T10:25:56;100893.59;;;16.03;49.07
76448;BME280;65284;51.040;13.722;2023-05-27T10:31:03;100913.72;;;15.90;48.99
76448;BME280;65284;51.040;13.722;2023-05-27T10:33:31;100909.09;;;15.76;50.05
76448;BME280;65284;51.040;13.722;2023-05-27T10:36:09;100894.56;;;15.71;49.08
76448;BME280;65284;51.040;13.722;2023-05-27T10:38:37;100891.22;;;15.60;49.38
76448;BME280;65284;51.040;13.722;2023-05-27T10:41:05;100889.53;;;15.67;49.23
76448;BME280;65284;51.040;13.722;2023-05-27T10:43:33;100881.44;;;15.92;48.61
76448;BME280;65284;51.040;13.722;2023-05-27T10:46:12;100887.03;;;16.05;48.80
76448;BME280;65284;51.040;13.722;2023-05-27T10:48:39;100881.63;;;16.22;48.20
76448;BME280;65284;51.040;13.722;2023-05-27T10:51:07;100873.47;;;16.07;47.53
76448;BME280;65284;51.040;13.722;2023-05-27T10:53:37;100891.94;;;16.02;47.69
76448;BME280;65284;51.040;13.722;2023-05-27T10:56:04;100875.44;;;16.21;47.53
76448;BME280;65284;51.040;13.722;2023-05-27T10:58:34;100869.56;;;16.18;47.92
76448;BME280;65284;51.040;13.722;2023-05-27T11:01:08;100874.00;;;16.33;47.63
76448;BME280;65284;51.040;13.722;2023-05-27T11:03:35;100878.03;;;16.29;47.48
76448;BME280;65284;51.040;13.722;2023-05-27T11:06:06;100865.28;;;16.31;46.64
76448;BME280;65284;51.040;13.722;2023-05-27T11:08:33;100859.63;;;16.26;46.65
76448;BME280;65284;51.040;13.722;2023-05-27T11:11:09;100859.84;;;16.48;46.22
76448;BME280;65284;51.040;13.722;2023-05-27T11:13:41;100859.69;;;16.41;45.62
76448;BME280;65284;51.040;13.722;2023-05-27T11:16:14;100860.06;;;16.61;46.58
76448;BME280;65284;51.040;13.722;2023-05-27T11:18:44;100855.66;;;16.68;47.06
76448;BME280;65284;51.040;13.722;2023-05-27T11:21:11;100856.59;;;16.75;47.11
76448;BME280;65284;51.040;13.722;2023-05-27T11:23:42;100853.25;;;16.73;46.12
76448;BME280;65284;51.040;13.722;2023-05-27T11:26:22;100844.56;;;16.71;45.70
76448;BME280;65284;51.040;13.722;2023-05-27T11:28:53;100858.28;;;16.76;45.10
76448;BME280;65284;51.040;13.722;2023-05-27T11:31:30;100846.22;;;16.72;44.52
76448;BME280;65284;51.040;13.722;2023-05-27T11:33:57;100839.22;;;16.71;44.35
76448;BME280;65284;51.040;13.722;2023-05-27T11:36:28;100842.19;;;16.76;44.22
76448;BME280;65284;51.040;13.722;2023-05-27T11:38:58;100839.06;;;16.88;44.88
76448;BME280;65284;51.040;13.722;2023-05-27T11:41:27;100835.97;;;16.99;44.91
76448;BME280;65284;51.040;13.722;2023-05-27T11:44:04;100833.94;;;17.01;44.90
76448;BME280;65284;51.040;13.722;2023-05-27T11:46:42;100824.50;;;17.05;44.54
76448;BME280;65284;51.040;13.722;2023-05-27T11:49:10;100815.91;;;17.10;44.65
76448;BME280;65284;51.040;13.722;2023-05-27T11:51:39;100814.88;;;17.25;44.50
76448;BME280;65284;51.040;13.722;2023-05-27T11:54:06;100813.78;;;17.35;42.90
76448;BME280;65284;51.040;13.722;2023-05-27T11:56:32;100813.78;;;17.35;43.09
76448;BME280;65284;51.040;13.722;2023-05-27T11:58:59;100809.97;;;17.44;43.26
76448;BME280;65284;51.040;13.722;2023-05-27T12:01:25;100804.22;;;17.47;43.29
76448;BME280;65284;51.040;13.722;2023-05-27T12:03:52;100792.94;;;17.51;42.95
76448;BME280;65284;51.040;13.722;2023-05-27T12:06:19;100791.72;;;17.54;42.51
76448;BME280;65284;51.040;13.722;2023-05-27T12:08:46;100791.50;;;17.70;42.62
76448;BME280;65284;51.040;13.722;2023-05-27T12:11:12;100779.16;;;17.40;42.77
76448;BME280;65284;51.040;13.722;2023-05-27T12:13:39;100784.78;;;17.45;43.05
76448;BME280;65284;51.040;13.722;2023-05-27T12:16:05;100780.50;;;17.50;42.96
76448;BME280;65284;51.040;13.722;2023-05-27T12:18:32;100770.25;;;17.54;43.32
76448;BME280;65284;51.040;13.722;2023-05-27T12:20:58;100786.34;;;17.84;43.15
76448;BME280;65284;51.040;13.722;2023-05-27T12:23:25;100781.34;;;17.81;43.17
76448;BME280;65284;51.040;13.722;2023-05-27T12:25:51;100771.94;;;17.91;40.73
76448;BME280;65284;51.040;13.722;2023-05-27T12:28:18;100782.63;;;17.85;41.62
76448;BME280;65284;51.040;13.722;2023-05-27T12:30:44;100777.63;;;17.82;42.05
76448;BME280;65284;51.040;13.722;2023-05-27T12:33:12;100774.63;;;17.91;41.78
76448;BME280;65284;51.040;13.722;2023-05-27T12:35:39;100775.72;;;17.97;41.81
76448;BME280;65284;51.040;13.722;2023-05-27T12:38:06;100764.84;;;18.05;42.33
76448;BME280;65284;51.040;13.722;2023-05-27T12:40:32;100761.50;;;18.03;40.84
76448;BME280;65284;51.040;13.722;2023-05-27T12:42:59;100762.53;;;18.02;40.54
76448;BME280;65284;51.040;13.722;2023-05-27T12:45:26;100768.69;;;18.17;40.83